sensor_id;sensor_type;location;lat;lon;timestamp;P1;durP1;ratioP1;P2;durP2;ratioP2
30068;SDS011;16894;49.456;10.644;2023-05-16T00:02:38;11.05;;;9.80;;
30068;SDS011;16894;49.456;10.644;2023-05-16T00:05:24;13.13;;;10.88;;
30068;SDS011;16894;49.456;10.644;2023-05-16T00:08:08;11.52;;;10.10;;
30068;SDS011;16894;49.456;10.644;2023-05-16T00:10:52;14.05;;;12.27;;
30068;SDS011;16894;49.456;10.644;2023-05-16T00:13:36;12.18;;;10.88;;
30068;SDS011;16894;49.456;10.644;2023-05-16T00:16:21;11.43;;;10.32;;
30068;SDS011;16894;49.456;10.644;2023-05-16T00:19:08;11.40;;;10.25;;
30068;SDS011;16894;49.456;10.644;2023-05-16T00:21:53;13.88;;;10.88;;
30068;SDS011;16894;49.456;10.644;2023-05-16T00:24:37;11.48;;;10.27;;
30068;SDS011;16894;49.456;10.644;2023-05-16T00:27:22;14.45;;;12.02;;
30068;SDS011;16894;49.456;10.644;2023-05-16T00:30:06;11.38;;;10.27;;
30068;SDS011;16894;49.456;10.644;2023-05-16T00:32:51;10.98;;;9.90;;
30068;SDS011;16894;49.456;10.644;2023-05-16T00:35:37;12.35;;;10.90;;
30068;SDS011;16894;49.456;10.644;2023-05-16T00:38:21;12.10;;;10.90;;
30068;SDS011;16894;49.456;10.644;2023-05-16T00:41:05;13.60;;;11.77;;
30068;SDS011;16894;49.456;10.644;2023-05-16T00:43:49;11.88;;;10.68;;
30068;SDS011;16894;49.456;10.644;2023-05-16T00:46:33;12.23;;;11.02;;
30068;SDS011;16894;49.456;10.644;2023-05-16T00:49:18;11.35;;;10.30;;
30068;SDS011;16894;49.456;10.644;2023-05-16T00:52:03;11.32;;;10.18;;
30068;SDS011;16894;49.456;10.644;2023-05-16T00:54:49;11.32;;;10.23;;
30068;SDS011;16894;49.456;10.644;2023-05-16T00:57:35;11.25;;;10.02;;
30068;SDS011;16894;49.456;10.644;2023-05-16T01:00:20;12.45;;;11.25;;
30068;SDS011;16894;49.456;10.644;2023-05-16T01:03:05;14.73;;;11.20;;
30068;SDS011;16894;49.456;10.644;2023-05-16T01:05:49;12.00;;;11.00;;
30068;SDS011;16894;49.456;10.644;2023-05-16T01:08:34;14.55;;;13.07;;
30068;SDS011;16894;49.456;10.644;2023-05-16T01:23:40;16.45;;;14.70;;
30068;SDS011;16894;49.456;10.644;2023-05-16T01:26:30;17.08;;;15.52;;
30068;SDS011;16894;49.456;10.644;2023-05-16T01:29:15;15.60;;;14.20;;
30068;SDS011;16894;49.456;10.644;2023-05-16T01:31:59;16.20;;;14.70;;
30068;SDS011;16894;49.456;10.644;2023-05-16T01:34:43;15.30;;;14.02;;
30068;SDS011;16894;49.456;10.644;2023-05-16T01:37:33;15.52;;;13.98;;
30068;SDS011;16894;49.456;10.644;2023-05-16T01:40:30;17.00;;;15.60;;
30068;SDS011;16894;49.456;10.644;2023-05-16T01:46:28;21.60;;;19.83;;
30068;SDS011;16894;49.456;10.644;2023-05-16T01:52:46;24.45;;;22.27;;
30068;SDS011;16894;49.456;10.644;2023-05-16T01:55:45;24.10;;;22.30;;
30068;SDS011;16894;49.456;10.644;2023-05-16T01:58:31;21.88;;;20.17;;
30068;SDS011;16894;49.456;10.644;2023-05-16T02:01:16;18.52;;;16.85;;
30068;SDS011;16894;49.456;10.644;2023-05-16T02:04:01;17.23;;;15.80;;
30068;SDS011;16894;49.456;10.644;2023-05-16T02:06:45;19.33;;;17.77;;
30068;SDS011;16894;49.456;10.644;2023-05-16T02:09:30;19.25;;;17.50;;
30068;SDS011;16894;49.456;10.644;2023-05-16T02:12:15;16.15;;;14.85;;
30068;SDS011;16894;49.456;10.644;2023-05-16T02:14:59;17.35;;;15.95;;
30068;SDS011;16894;49.456;10.644;2023-05-16T02:17:43;20.25;;;18.27;;
30068;SDS011;16894;49.456;10.644;2023-05-16T02:20:27;46.97;;;42.85;;
30068;SDS011;16894;49.456;10.644;2023-05-16T02:23:11;21.67;;;19.77;;
30068;SDS011;16894;49.456;10.644;2023-05-16T02:25:55;20.85;;;19.02;;
30068;SDS011;16894;49.456;10.644;2023-05-16T02:28:39;24.15;;;22.02;;
30068;SDS011;16894;49.456;10.644;2023-05-16T02:31:24;24.38;;;22.02;;
30068;SDS011;16894;49.456;10.644;2023-05-16T02:34:15;24.27;;;22.33;;
30068;SDS011;16894;49.456;10.644;2023-05-16T02:36:59;18.85;;;17.23;;
30068;SDS011;16894;49.456;10.644;2023-05-16T02:39:43;16.10;;;14.73;;
30068;SDS011;16894;49.456;10.644;2023-05-16T02:42:27;18.63;;;16.75;;
30068;SDS011;16894;49.456;10.644;2023-05-16T02:45:12;19.15;;;17.38;;
30068;SDS011;16894;49.456;10.644;2023-05-16T02:47:56;18.38;;;16.77;;
30068;SDS011;16894;49.456;10.644;2023-05-16T02:50:40;13.93;;;10.77;;
30068;SDS011;16894;49.456;10.644;2023-05-16T02:53:25;13.45;;;11.90;;
30068;SDS011;16894;49.456;10.644;2023-05-16T02:56:09;13.57;;;11.05;;
30068;SDS011;16894;49.456;10.644;2023-05-16T02:58:53;12.10;;;10.93;;
30068;SDS011;16894;49.456;10.644;2023-05-16T03:01:39;15.20;;;13.52;;
30068;SDS011;16894;49.456;10.644;2023-05-16T03:04:23;14.88;;;12.35;;
30068;SDS011;16894;49.456;10.644;2023-05-16T03:07:07;14.45;;;12.63;;
30068;SDS011;16894;49.456;10.644;2023-05-16T03:09:51;12.80;;;11.43;;
30068;SDS011;16894;49.456;10.644;2023-05-16T03:12:35;13.93;;;12.52;;
30068;SDS011;16894;49.456;10.644;2023-05-16T03:15:19;13.93;;;12.55;;
30068;SDS011;16894;49.456;10.644;2023-05-16T03:18:03;13.30;;;10.85;;
30068;SDS011;16894;49.456;10.644;2023-05-16T03:20:48;11.95;;;10.35;;
30068;SDS011;16894;49.456;10.644;2023-05-16T03:23:32;15.55;;;11.98;;
30068;SDS011;16894;49.456;10.644;2023-05-16T03:26:16;11.05;;;9.82;;
30068;SDS011;16894;49.456;10.644;2023-05-16T03:29:00;14.98;;;11.05;;
30068;SDS011;16894;49.456;10.644;2023-05-16T03:31:44;13.05;;;10.30;;
30068;SDS011;16894;49.456;10.644;2023-05-16T03:34:28;15.50;;;12.25;;
30068;SDS011;16894;49.456;10.644;2023-05-16T03:37:13;14.02;;;10.80;;
30068;SDS011;16894;49.456;10.644;2023-05-16T03:39:59;16.92;;;11.02;;
30068;SDS011;16894;49.456;10.644;2023-05-16T03:42:44;12.07;;;10.88;;
30068;SDS011;16894;49.456;10.644;2023-05-16T03:45:28;36.55;;;11.23;;
30068;SDS011;16894;49.456;10.644;2023-05-16T03:48:13;14.90;;;10.50;;
30068;SDS011;16894;49.456;10.644;2023-05-16T03:50:57;22.88;;;11.05;;
30068;SDS011;16894;49.456;10.644;2023-05-16T03:53:41;13.18;;;10.20;;
30068;SDS011;16894;49.456;10.644;2023-05-16T03:56:25;12.77;;;10.82;;
30068;SDS011;16894;49.456;10.644;2023-05-16T03:59:09;12.68;;;10.55;;
30068;SDS011;16894;49.456;10.644;2023-05-16T04:01:54;15.73;;;11.45;;
30068;SDS011;16894;49.456;10.644;2023-05-16T04:04:38;10.75;;;9.55;;
30068;SDS011;16894;49.456;10.644;2023-05-16T04:07:22;10.07;;;9.02;;
30068;SDS011;16894;49.456;10.644;2023-05-16T04:10:07;12.23;;;9.75;;
30068;SDS011;16894;49.456;10.644;2023-05-16T04:12:52;11.45;;;9.85;;
30068;SDS011;16894;49.456;10.644;2023-05-16T04:15:36;12.77;;;10.30;;
30068;SDS011;16894;49.456;10.644;2023-05-16T04:18:21;15.40;;;13.88;;
30068;SDS011;16894;49.456;10.644;2023-05-16T04:21:05;15.35;;;14.05;;
30068;SDS011;16894;49.456;10.644;2023-05-16T04:23:50;16.58;;;14.90;;
30068;SDS011;16894;49.456;10.644;2023-05-16T04:26:35;28.17;;;25.67;;
30068;SDS011;16894;49.456;10.644;2023-05-16T04:29:20;48.78;;;44.55;;
30068;SDS011;16894;49.456;10.644;2023-05-16T04:32:05;16.40;;;14.88;;
30068;SDS011;16894;49.456;10.644;2023-05-16T04:34:50;17.10;;;15.10;;
30068;SDS011;16894;49.456;10.644;2023-05-16T04:37:37;18.35;;;14.35;;
30068;SDS011;16894;49.456;10.644;2023-05-16T04:40:21;19.13;;;13.25;;
30068;SDS011;16894;49.456;10.644;2023-05-16T04:43:07;16.52;;;14.55;;
30068;SDS011;16894;49.456;10.644;2023-05-16T04:45:51;12.18;;;10.77;;
30068;SDS011;16894;49.456;10.644;2023-05-16T04:48:36;15.52;;;13.20;;
30068;SDS011;16894;49.456;10.644;2023-05-16T04:51:20;14.85;;;12.18;;
30068;SDS011;16894;49.456;10.644;2023-05-16T04:54:04;15.25;;;13.85;;
30068;SDS011;16894;49.456;10.644;2023-05-16T04:56:49;11.65;;;10.40;;
30068;SDS011;16894;49.456;10.644;2023-05-16T04:59:33;15.25;;;13.65;;
30068;SDS011;16894;49.456;10.644;2023-05-16T05:02:17;18.02;;;12.43;;
30068;SDS011;16894;49.456;10.644;2023-05-16T05:05:01;15.48;;;13.35;;
30068;SDS011;16894;49.456;10.644;2023-05-16T05:07:46;14.98;;;13.50;;
30068;SDS011;16894;49.456;10.644;2023-05-16T05:10:30;18.45;;;16.95;;
30068;SDS011;16894;49.456;10.644;2023-05-16T05:13:15;17.65;;;15.90;;
30068;SDS011;16894;49.456;10.644;2023-05-16T05:15:59;15.85;;;14.25;;
30068;SDS011;16894;49.456;10.644;2023-05-16T05:18:47;15.82;;;13.02;;
30068;SDS011;16894;49.456;10.644;2023-05-16T05:21:31;43.08;;;39.05;;
30068;SDS011;16894;49.456;10.644;2023-05-16T05:24:15;42.55;;;39.08;;
30068;SDS011;16894;49.456;10.644;2023-05-16T05:26:59;16.42;;;14.70;;
30068;SDS011;16894;49.456;10.644;2023-05-16T05:29:43;15.82;;;14.30;;
30068;SDS011;16894;49.456;10.644;2023-05-16T05:32:27;21.70;;;19.40;;
30068;SDS011;16894;49.456;10.644;2023-05-16T05:35:12;16.73;;;15.02;;
30068;SDS011;16894;49.456;10.644;2023-05-16T05:37:56;20.85;;;18.98;;
30068;SDS011;16894;49.456;10.644;2023-05-16T05:40:40;23.23;;;19.50;;
30068;SDS011;16894;49.456;10.644;2023-05-16T05:43:24;22.30;;;20.08;;
30068;SDS011;16894;49.456;10.644;2023-05-16T05:46:08;15.10;;;13.50;;
30068;SDS011;16894;49.456;10.644;2023-05-16T05:48:53;17.92;;;15.82;;
30068;SDS011;16894;49.456;10.644;2023-05-16T05:51:37;17.90;;;16.00;;
30068;SDS011;16894;49.456;10.644;2023-05-16T05:54:22;35.63;;;32.70;;
30068;SDS011;16894;49.456;10.644;2023-05-16T05:57:06;23.60;;;21.48;;
30068;SDS011;16894;49.456;10.644;2023-05-16T05:59:50;31.73;;;29.13;;
30068;SDS011;16894;49.456;10.644;2023-05-16T06:02:35;57.28;;;53.08;;
30068;SDS011;16894;49.456;10.644;2023-05-16T06:05:20;103.15;;;96.40;;
30068;SDS011;16894;49.456;10.644;2023-05-16T06:08:04;97.18;;;90.85;;
30068;SDS011;16894;49.456;10.644;2023-05-16T06:10:48;124.95;;;117.10;;
30068;SDS011;16894;49.456;10.644;2023-05-16T06:13:32;168.07;;;157.57;;
30068;SDS011;16894;49.456;10.644;2023-05-16T06:16:17;234.82;;;220.38;;
30068;SDS011;16894;49.456;10.644;2023-05-16T06:19:01;387.67;;;363.17;;
30068;SDS011;16894;49.456;10.644;2023-05-16T06:21:46;586.95;;;544.60;;
30068;SDS011;16894;49.456;10.644;2023-05-16T06:24:31;477.63;;;446.95;;
30068;SDS011;16894;49.456;10.644;2023-05-16T06:27:15;601.63;;;559.70;;
30068;SDS011;16894;49.456;10.644;2023-05-16T06:29:59;576.83;;;537.30;;
30068;SDS011;16894;49.456;10.644;2023-05-16T06:32:43;588.55;;;548.35;;
30068;SDS011;16894;49.456;10.644;2023-05-16T06:35:28;556.17;;;518.67;;
30068;SDS011;16894;49.456;10.644;2023-05-16T06:38:12;622.38;;;578.30;;
30068;SDS011;16894;49.456;10.644;2023-05-16T06:40:56;579.60;;;539.63;;
30068;SDS011;16894;49.456;10.644;2023-05-16T06:43:40;617.35;;;573.88;;
30068;SDS011;16894;49.456;10.644;2023-05-16T06:46:25;662.60;;;614.63;;
30068;SDS011;16894;49.456;10.644;2023-05-16T06:49:10;717.53;;;662.85;;
30068;SDS011;16894;49.456;10.644;2023-05-16T06:51:54;752.28;;;695.58;;
30068;SDS011;16894;49.456;10.644;2023-05-16T06:54:38;826.75;;;762.38;;
30068;SDS011;16894;49.456;10.644;2023-05-16T06:57:22;863.20;;;794.78;;
30068;SDS011;16894;49.456;10.644;2023-05-16T07:00:06;880.15;;;809.35;;
30068;SDS011;16894;49.456;10.644;2023-05-16T07:02:51;909.47;;;835.28;;
30068;SDS011;16894;49.456;10.644;2023-05-16T07:05:36;1005.20;;;913.55;;
30068;SDS011;16894;49.456;10.644;2023-05-16T07:08:20;1024.75;;;932.38;;
30068;SDS011;16894;49.456;10.644;2023-05-16T07:11:04;913.88;;;839.22;;
30068;SDS011;16894;49.456;10.644;2023-05-16T07:13:48;939.40;;;859.10;;
30068;SDS011;16894;49.456;10.644;2023-05-16T07:16:32;965.55;;;882.42;;
30068;SDS011;16894;49.456;10.644;2023-05-16T07:19:16;975.28;;;892.35;;
30068;SDS011;16894;49.456;10.644;2023-05-16T07:22:00;1029.18;;;938.33;;
30068;SDS011;16894;49.456;10.644;2023-05-16T07:24:45;1035.10;;;940.92;;
30068;SDS011;16894;49.456;10.644;2023-05-16T07:27:29;1037.97;;;944.45;;
30068;SDS011;16894;49.456;10.644;2023-05-16T07:30:15;1072.55;;;969.40;;
30068;SDS011;16894;49.456;10.644;2023-05-16T07:32:59;1065.85;;;966.70;;
30068;SDS011;16894;49.456;10.644;2023-05-16T07:35:43;1093.00;;;987.63;;
30068;SDS011;16894;49.456;10.644;2023-05-16T07:38:28;1076.75;;;975.60;;
30068;SDS011;16894;49.456;10.644;2023-05-16T07:41:12;1153.40;;;999.90;;
30068;SDS011;16894;49.456;10.644;2023-05-16T07:43:56;1120.18;;;998.67;;
30068;SDS011;16894;49.456;10.644;2023-05-16T07:46:40;1082.05;;;978.15;;
30068;SDS011;16894;49.456;10.644;2023-05-16T07:49:27;1070.20;;;967.10;;
30068;SDS011;16894;49.456;10.644;2023-05-16T07:52:11;1103.60;;;993.67;;
30068;SDS011;16894;49.456;10.644;2023-05-16T07:54:55;1114.22;;;989.65;;
30068;SDS011;16894;49.456;10.644;2023-05-16T07:57:41;1999.90;;;999.90;;
30068;SDS011;16894;49.456;10.644;2023-05-16T08:00:26;1999.90;;;999.90;;
30068;SDS011;16894;49.456;10.644;2023-05-16T08:03:10;1999.90;;;999.90;;
30068;SDS011;16894;49.456;10.644;2023-05-16T08:05:54;1999.90;;;999.90;;
30068;SDS011;16894;49.456;10.644;2023-05-16T08:08:39;1999.90;;;999.90;;
30068;SDS011;16894;49.456;10.644;2023-05-16T08:11:23;1999.90;;;999.90;;
30068;SDS011;16894;49.456;10.644;2023-05-16T08:14:08;1999.90;;;999.90;;
30068;SDS011;16894;49.456;10.644;2023-05-16T08:16:52;1999.90;;;999.90;;
30068;SDS011;16894;49.456;10.644;2023-05-16T08:19:36;1999.90;;;999.90;;
30068;SDS011;16894;49.456;10.644;2023-05-16T08:22:20;1999.90;;;999.90;;
30068;SDS011;16894;49.456;10.644;2023-05-16T08:25:05;1999.90;;;999.90;;
30068;SDS011;16894;49.456;10.644;2023-05-16T08:27:49;1999.90;;;999.90;;
30068;SDS011;16894;49.456;10.644;2023-05-16T08:30:34;1999.90;;;999.90;;
30068;SDS011;16894;49.456;10.644;2023-05-16T08:33:18;1999.90;;;999.90;;
30068;SDS011;16894;49.456;10.644;2023-05-16T08:36:02;1999.90;;;999.90;;
30068;SDS011;16894;49.456;10.644;2023-05-16T08:38:48;1999.90;;;999.90;;
30068;SDS011;16894;49.456;10.644;2023-05-16T08:41:33;1999.90;;;999.90;;
30068;SDS011;16894;49.456;10.644;2023-05-16T08:44:18;1999.90;;;999.90;;
30068;SDS011;16894;49.456;10.644;2023-05-16T08:47:25;654.13;;;594.20;;
30068;SDS011;16894;49.456;10.644;2023-05-16T08:50:09;741.10;;;671.85;;
30068;SDS011;16894;49.456;10.644;2023-05-16T08:52:54;786.22;;;716.65;;
30068;SDS011;16894;49.456;10.644;2023-05-16T08:55:39;917.83;;;828.70;;
30068;SDS011;16894;49.456;10.644;2023-05-16T08:58:25;1005.92;;;911.58;;
30068;SDS011;16894;49.456;10.644;2023-05-16T09:01:10;1072.70;;;967.03;;
30068;SDS011;16894;49.456;10.644;2023-05-16T09:03:55;1110.35;;;995.67;;
30068;SDS011;16894;49.456;10.644;2023-05-16T09:06:39;1075.35;;;972.60;;
30068;SDS011;16894;49.456;10.644;2023-05-16T09:09:24;1068.05;;;965.28;;
30068;SDS011;16894;49.456;10.644;2023-05-16T09:12:08;1052.55;;;954.72;;
30068;SDS011;16894;49.456;10.644;2023-05-16T09:14:52;1082.68;;;977.55;;
30068;SDS011;16894;49.456;10.644;2023-05-16T09:17:43;1070.55;;;968.47;;
30068;SDS011;16894;49.456;10.644;2023-05-16T09:20:29;1113.60;;;994.80;;
30068;SDS011;16894;49.456;10.644;2023-05-16T09:23:13;1128.60;;;999.90;;
30068;SDS011;16894;49.456;10.644;2023-05-16T09:25:58;998.10;;;911.58;;
30068;SDS011;16894;49.456;10.644;2023-05-16T09:28:43;1006.58;;;917.10;;
30068;SDS011;16894;49.456;10.644;2023-05-16T09:31:28;996.42;;;910.13;;
30068;SDS011;16894;49.456;10.644;2023-05-16T09:34:21;1009.92;;;919.53;;
30068;SDS011;16894;49.456;10.644;2023-05-16T09:37:05;1020.03;;;927.50;;
30068;SDS011;16894;49.456;10.644;2023-05-16T09:39:52;1043.55;;;947.30;;
30068;SDS011;16894;49.456;10.644;2023-05-16T09:42:43;1111.07;;;997.50;;
30068;SDS011;16894;49.456;10.644;2023-05-16T09:45:29;1439.60;;;999.90;;
30068;SDS011;16894;49.456;10.644;2023-05-16T09:48:15;1071.85;;;968.70;;
30068;SDS011;16894;49.456;10.644;2023-05-16T09:51:00;1062.72;;;959.63;;
30068;SDS011;16894;49.456;10.644;2023-05-16T09:53:48;1100.65;;;987.70;;
30068;SDS011;16894;49.456;10.644;2023-05-16T09:56:32;1034.40;;;936.22;;
30068;SDS011;16894;49.456;10.644;2023-05-16T09:59:17;1055.10;;;953.67;;
30068;SDS011;16894;49.456;10.644;2023-05-16T10:02:01;983.15;;;892.30;;
30068;SDS011;16894;49.456;10.644;2023-05-16T10:04:47;1629.82;;;867.45;;
30068;SDS011;16894;49.456;10.644;2023-05-16T10:07:31;1999.90;;;999.90;;
30068;SDS011;16894;49.456;10.644;2023-05-16T10:10:17;1999.90;;;999.90;;
30068;SDS011;16894;49.456;10.644;2023-05-16T10:13:01;1999.90;;;999.90;;
30068;SDS011;16894;49.456;10.644;2023-05-16T10:15:48;1999.90;;;999.90;;
30068;SDS011;16894;49.456;10.644;2023-05-16T10:18:33;1999.90;;;999.90;;
30068;SDS011;16894;49.456;10.644;2023-05-16T10:21:19;1999.90;;;999.90;;
30068;SDS011;16894;49.456;10.644;2023-05-16T10:24:06;1999.90;;;999.90;;
30068;SDS011;16894;49.456;10.644;2023-05-16T10:26:54;1999.90;;;999.90;;
30068;SDS011;16894;49.456;10.644;2023-05-16T10:29:38;1999.90;;;999.90;;
30068;SDS011;16894;49.456;10.644;2023-05-16T10:32:23;1999.90;;;999.90;;
30068;SDS011;16894;49.456;10.644;2023-05-16T10:35:09;1999.90;;;999.90;;
30068;SDS011;16894;49.456;10.644;2023-05-16T10:37:54;1999.90;;;999.90;;
30068;SDS011;16894;49.456;10.644;2023-05-16T10:40:39;1999.90;;;999.90;;
30068;SDS011;16894;49.456;10.644;2023-05-16T10:43:24;1999.90;;;999.90;;
30068;SDS011;16894;49.456;10.644;2023-05-16T10:46:09;1999.90;;;999.90;;
30068;SDS011;16894;49.456;10.644;2023-05-16T10:48:54;1999.90;;;999.90;;
30068;SDS011;16894;49.456;10.644;2023-05-16T10:51:39;1999.90;;;999.90;;
30068;SDS011;16894;49.456;10.644;2023-05-16T10:54:24;1999.90;;;999.90;;
30068;SDS011;16894;49.456;10.644;2023-05-16T10:57:26;1999.90;;;999.90;;
30068;SDS011;16894;49.456;10.644;2023-05-16T11:00:10;1999.90;;;999.90;;
30068;SDS011;16894;49.456;10.644;2023-05-16T11:03:05;1999.90;;;999.90;;
30068;SDS011;16894;49.456;10.644;2023-05-16T11:06:02;1999.90;;;999.90;;
30068;SDS011;16894;49.456;10.644;2023-05-16T11:11:59;1999.90;;;999.90;;
30068;SDS011;16894;49.456;10.644;2023-05-16T11:14:48;1999.90;;;999.90;;
30068;SDS011;16894;49.456;10.644;2023-05-16T11:17:38;1999.90;;;999.90;;
30068;SDS011;16894;49.456;10.644;2023-05-16T11:20:24;1999.90;;;999.90;;
30068;SDS011;16894;49.456;10.644;2023-05-16T11:26:00;1999.90;;;999.90;;
30068;SDS011;16894;49.456;10.644;2023-05-16T11:28:47;1999.90;;;999.90;;
30068;SDS011;16894;49.456;10.644;2023-05-16T11:31:32;1999.90;;;999.90;;
30068;SDS011;16894;49.456;10.644;2023-05-16T11:34:17;1999.90;;;999.90;;
30068;SDS011;16894;49.456;10.644;2023-05-16T11:37:02;1999.90;;;999.90;;
30068;SDS011;16894;49.456;10.644;2023-05-16T11:39:47;1999.90;;;999.90;;
30068;SDS011;16894;49.456;10.644;2023-05-16T11:42:33;1999.90;;;999.90;;
30068;SDS011;16894;49.456;10.644;2023-05-16T11:45:20;1999.90;;;999.90;;
30068;SDS011;16894;49.456;10.644;2023-05-16T11:48:07;1999.90;;;999.90;;
30068;SDS011;16894;49.456;10.644;2023-05-16T11:50:52;1999.90;;;999.90;;
30068;SDS011;16894;49.456;10.644;2023-05-16T11:53:36;1999.90;;;999.90;;
30068;SDS011;16894;49.456;10.644;2023-05-16T11:56:21;1999.90;;;999.90;;
30068;SDS011;16894;49.456;10.644;2023-05-16T11:59:06;1999.90;;;999.90;;
30068;SDS011;16894;49.456;10.644;2023-05-16T12:01:50;1999.90;;;999.90;;
30068;SDS011;16894;49.456;10.644;2023-05-16T12:04:35;1999.90;;;999.90;;
30068;SDS011;16894;49.456;10.644;2023-05-16T12:07:26;1999.90;;;999.90;;
30068;SDS011;16894;49.456;10.644;2023-05-16T12:10:14;1999.90;;;999.90;;
30068;SDS011;16894;49.456;10.644;2023-05-16T12:12:59;1999.90;;;999.90;;
30068;SDS011;16894;49.456;10.644;2023-05-16T12:15:44;1999.90;;;999.90;;
30068;SDS011;16894;49.456;10.644;2023-05-16T12:18:29;1999.90;;;999.90;;
30068;SDS011;16894;49.456;10.644;2023-05-16T12:21:13;1999.90;;;999.90;;
30068;SDS011;16894;49.456;10.644;2023-05-16T12:23:57;1999.90;;;999.90;;
30068;SDS011;16894;49.456;10.644;2023-05-16T12:26:41;1999.90;;;999.90;;
30068;SDS011;16894;49.456;10.644;2023-05-16T12:29:27;1999.90;;;999.90;;
30068;SDS011;16894;49.456;10.644;2023-05-16T12:32:18;1999.90;;;999.90;;
30068;SDS011;16894;49.456;10.644;2023-05-16T12:35:03;1999.90;;;999.90;;
30068;SDS011;16894;49.456;10.644;2023-05-16T12:37:48;1999.90;;;999.90;;
30068;SDS011;16894;49.456;10.644;2023-05-16T12:40:35;1999.90;;;999.90;;
30068;SDS011;16894;49.456;10.644;2023-05-16T12:46:08;1999.90;;;999.90;;
30068;SDS011;16894;49.456;10.644;2023-05-16T12:49:02;1999.90;;;999.90;;
30068;SDS011;16894;49.456;10.644;2023-05-16T12:51:50;1999.90;;;999.90;;
30068;SDS011;16894;49.456;10.644;2023-05-16T12:54:35;1999.90;;;999.90;;
30068;SDS011;16894;49.456;10.644;2023-05-16T12:57:20;1999.90;;;999.90;;
30068;SDS011;16894;49.456;10.644;2023-05-16T13:00:04;1999.90;;;999.90;;
30068;SDS011;16894;49.456;10.644;2023-05-16T13:02:50;1999.90;;;999.90;;
30068;SDS011;16894;49.456;10.644;2023-05-16T13:05:34;1999.90;;;999.90;;
30068;SDS011;16894;49.456;10.644;2023-05-16T13:08:19;1999.90;;;999.90;;
30068;SDS011;16894;49.456;10.644;2023-05-16T13:11:03;1999.90;;;999.90;;
30068;SDS011;16894;49.456;10.644;2023-05-16T13:13:47;1999.90;;;999.90;;
30068;SDS011;16894;49.456;10.644;2023-05-16T13:16:32;1999.90;;;999.90;;
30068;SDS011;16894;49.456;10.644;2023-05-16T13:19:16;1999.90;;;999.90;;
30068;SDS011;16894;49.456;10.644;2023-05-16T13:22:00;1999.90;;;999.90;;
30068;SDS011;16894;49.456;10.644;2023-05-16T13:24:44;1999.90;;;999.90;;
30068;SDS011;16894;49.456;10.644;2023-05-16T13:27:28;1999.90;;;999.90;;
30068;SDS011;16894;49.456;10.644;2023-05-16T13:30:13;1999.90;;;999.90;;
30068;SDS011;16894;49.456;10.644;2023-05-16T13:32:58;1999.90;;;999.90;;
30068;SDS011;16894;49.456;10.644;2023-05-16T13:35:42;1999.90;;;999.90;;
30068;SDS011;16894;49.456;10.644;2023-05-16T13:38:27;1999.90;;;999.90;;
30068;SDS011;16894;49.456;10.644;2023-05-16T13:41:11;1999.90;;;999.90;;
30068;SDS011;16894;49.456;10.644;2023-05-16T13:43:56;1999.90;;;999.90;;
30068;SDS011;16894;49.456;10.644;2023-05-16T13:46:40;1999.90;;;999.90;;
30068;SDS011;16894;49.456;10.644;2023-05-16T13:49:25;1999.90;;;999.90;;
30068;SDS011;16894;49.456;10.644;2023-05-16T13:52:09;1999.90;;;999.90;;
30068;SDS011;16894;49.456;10.644;2023-05-16T13:54:54;1999.90;;;999.90;;
30068;SDS011;16894;49.456;10.644;2023-05-16T13:57:38;1999.90;;;999.90;;
30068;SDS011;16894;49.456;10.644;2023-05-16T14:00:22;1999.90;;;999.90;;
30068;SDS011;16894;49.456;10.644;2023-05-16T14:03:07;1999.90;;;999.90;;
30068;SDS011;16894;49.456;10.644;2023-05-16T14:05:51;1999.90;;;999.90;;
30068;SDS011;16894;49.456;10.644;2023-05-16T14:08:35;1999.90;;;999.90;;
30068;SDS011;16894;49.456;10.644;2023-05-16T14:11:19;1999.90;;;999.90;;
30068;SDS011;16894;49.456;10.644;2023-05-16T14:14:08;1999.90;;;999.90;;
30068;SDS011;16894;49.456;10.644;2023-05-16T14:16:53;1999.90;;;999.90;;
30068;SDS011;16894;49.456;10.644;2023-05-16T14:19:37;1999.90;;;999.90;;
30068;SDS011;16894;49.456;10.644;2023-05-16T14:22:22;1999.90;;;999.90;;
30068;SDS011;16894;49.456;10.644;2023-05-16T14:25:06;1999.90;;;999.90;;
30068;SDS011;16894;49.456;10.644;2023-05-16T14:27:50;1999.90;;;999.90;;
30068;SDS011;16894;49.456;10.644;2023-05-16T14:30:34;1999.90;;;999.90;;
30068;SDS011;16894;49.456;10.644;2023-05-16T14:33:20;1999.90;;;999.90;;
30068;SDS011;16894;49.456;10.644;2023-05-16T14:36:04;1999.90;;;999.90;;
30068;SDS011;16894;49.456;10.644;2023-05-16T14:38:49;1999.90;;;999.90;;
30068;SDS011;16894;49.456;10.644;2023-05-16T14:41:34;1999.90;;;999.90;;
30068;SDS011;16894;49.456;10.644;2023-05-16T14:44:18;1999.90;;;999.90;;
30068;SDS011;16894;49.456;10.644;2023-05-16T14:47:04;1999.90;;;999.90;;
30068;SDS011;16894;49.456;10.644;2023-05-16T14:49:49;1999.90;;;999.90;;
30068;SDS011;16894;49.456;10.644;2023-05-16T14:52:36;1999.90;;;999.90;;
30068;SDS011;16894;49.456;10.644;2023-05-16T14:55:22;1999.90;;;999.90;;
30068;SDS011;16894;49.456;10.644;2023-05-16T14:58:06;1999.90;;;999.90;;
30068;SDS011;16894;49.456;10.644;2023-05-16T15:00:51;1999.90;;;999.90;;
30068;SDS011;16894;49.456;10.644;2023-05-16T15:03:35;1999.90;;;999.90;;
30068;SDS011;16894;49.456;10.644;2023-05-16T15:06:20;1999.90;;;999.90;;
30068;SDS011;16894;49.456;10.644;2023-05-16T15:09:04;1999.90;;;999.90;;
30068;SDS011;16894;49.456;10.644;2023-05-16T15:11:48;1999.90;;;999.90;;
30068;SDS011;16894;49.456;10.644;2023-05-16T15:14:32;1999.90;;;999.90;;
30068;SDS011;16894;49.456;10.644;2023-05-16T15:17:16;1999.90;;;999.90;;
30068;SDS011;16894;49.456;10.644;2023-05-16T15:20:00;1999.90;;;999.90;;
30068;SDS011;16894;49.456;10.644;2023-05-16T15:22:45;1999.90;;;999.90;;
30068;SDS011;16894;49.456;10.644;2023-05-16T15:25:30;1999.90;;;999.90;;
30068;SDS011;16894;49.456;10.644;2023-05-16T15:28:14;1999.90;;;999.90;;
30068;SDS011;16894;49.456;10.644;2023-05-16T15:30:59;1999.90;;;999.90;;
30068;SDS011;16894;49.456;10.644;2023-05-16T15:33:43;1999.90;;;999.90;;
30068;SDS011;16894;49.456;10.644;2023-05-16T15:36:27;1999.90;;;999.90;;
30068;SDS011;16894;49.456;10.644;2023-05-16T15:39:11;1999.90;;;999.90;;
30068;SDS011;16894;49.456;10.644;2023-05-16T15:41:56;1999.90;;;999.90;;
30068;SDS011;16894;49.456;10.644;2023-05-16T15:44:40;1999.90;;;999.90;;
30068;SDS011;16894;49.456;10.644;2023-05-16T15:47:24;1999.90;;;999.90;;
30068;SDS011;16894;49.456;10.644;2023-05-16T15:50:08;1999.90;;;999.90;;
30068;SDS011;16894;49.456;10.644;2023-05-16T15:52:53;1999.90;;;999.90;;
30068;SDS011;16894;49.456;10.644;2023-05-16T15:55:40;1999.90;;;999.90;;